Time;durP1;ratioP1;P1;durP2;ratioP2;P2;SDS_P1;SDS_P2;PMS_P1;PMS_P2;Temp;Humidity;BMP_temperature;BMP_pressure;BME280_temperature;BME280_humidity;BME280_pressure;Samples;Min_cycle;Max_cycle;Signal;HPM_P1;HPM_P2
2022/04/30 00:00:45;;;;;;;;;33.00;31.25;;;;;11.92;56.38;102418.94;5096986;27;45396;-67
2022/04/30 00:03:10;;;;;;;;;30.50;26.50;;;;;11.96;56.46;102432.25;5093412;27;45243;-67
2022/04/30 00:05:36;;;;;;;;;45.25;33.75;;;;;11.92;57.11;102428.00;5105436;27;45306;-67
2022/04/30 00:08:06;;;;;;;;;35.25;28.25;;;;;11.77;57.44;102425.56;5092830;27;45274;-67
2022/04/30 00:10:37;;;;;;;;;30.25;26.00;;;;;11.69;58.21;102432.41;5116328;27;45395;-67
2022/04/30 00:13:04;;;;;;;;;44.75;33.25;;;;;11.58;58.24;102417.88;5088594;27;45445;-67
2022/04/30 00:15:29;;;;;;;;;35.75;33.00;;;;;11.60;58.87;102426.81;5099706;27;45475;-67
2022/04/30 00:17:55;;;;;;;;;32.50;25.00;;;;;11.40;59.73;102436.41;5091729;27;45310;-67
2022/04/30 00:20:20;;;;;;;;;32.25;30.00;;;;;11.38;60.00;102438.41;5100839;27;45323;-67
2022/04/30 00:22:46;;;;;;;;;37.00;31.25;;;;;11.41;59.92;102443.59;5090559;27;46347;-67
2022/04/30 00:25:14;;;;;;;;;40.50;34.25;;;;;11.29;60.16;102431.78;5100327;27;45371;-67
2022/04/30 00:27:39;;;;;;;;;36.00;33.75;;;;;11.25;60.67;102440.28;5091359;27;45327;-67
2022/04/30 00:30:05;;;;;;;;;41.25;33.25;;;;;11.11;60.78;102424.06;5114983;27;45540;-67
2022/04/30 00:32:30;;;;;;;;;37.00;33.25;;;;;11.23;60.65;102434.09;5089381;27;46709;-67
2022/04/30 00:34:56;;;;;;;;;37.25;32.00;;;;;11.28;60.60;102437.31;5089587;27;46281;-67
2022/04/30 00:37:21;;;;;;;;;32.25;31.25;;;;;11.23;60.53;102442.25;5105049;27;45334;-67
2022/04/30 00:39:46;;;;;;;;;40.00;35.75;;;;;11.18;61.00;102450.72;5097291;27;45451;-67
2022/04/30 00:42:12;;;;;;;;;37.75;31.50;;;;;11.11;61.47;102446.72;5101421;27;48238;-67
2022/04/30 00:44:38;;;;;;;;;39.00;35.50;;;;;11.04;61.67;102445.41;5093958;27;45324;-67
2022/04/30 00:47:03;;;;;;;;;39.75;33.00;;;;;11.04;61.33;102455.41;5104999;27;45554;-67
2022/04/30 00:49:29;;;;;;;;;31.25;30.00;;;;;10.90;62.39;102448.25;5093424;27;45459;-67
2022/04/30 00:52:01;;;;;;;;;33.75;31.25;;;;;10.72;63.19;102455.88;5103942;27;45482;-67
2022/04/30 00:54:32;;;;;;;;;42.25;32.75;;;;;10.84;63.29;102454.13;5099184;27;45495;-68
2022/04/30 00:57:01;;;;;;;;;35.25;29.25;;;;;10.91;62.29;102453.59;5085371;27;45400;-66
2022/04/30 00:59:29;;;;;;;;;41.75;33.50;;;;;10.93;63.00;102454.34;5100109;27;45399;-67
2022/04/30 01:01:59;;;;;;;;;38.75;33.25;;;;;10.89;62.60;102447.38;5085944;27;46246;-67
2022/04/30 01:04:25;;;;;;;;;45.75;34.25;;;;;10.76;63.27;102437.47;5097927;27;45395;-67
2022/04/30 01:07:05;;;;;;;;;36.50;33.75;;;;;10.73;63.40;102435.88;5098242;27;45408;-67
2022/04/30 01:09:34;;;;;;;;;37.25;32.25;;;;;10.52;64.05;102429.19;5098845;27;45581;-67
2022/04/30 01:12:08;;;;;;;;;37.00;33.00;;;;;10.61;64.37;102431.28;5086592;27;45650;-67
2022/04/30 01:14:34;;;;;;;;;39.75;35.25;;;;;10.66;64.36;102437.28;5097992;27;45416;-68
2022/04/30 01:17:05;;;;;;;;;42.75;35.00;;;;;10.68;64.08;102432.59;5093451;27;45299;-68
2022/04/30 01:19:32;;;;;;;;;41.50;33.50;;;;;10.75;63.97;102431.16;5099691;27;45554;-68
2022/04/30 01:22:00;;;;;;;;;36.25;31.00;;;;;10.77;63.84;102418.34;5093094;27;45376;-67
2022/04/30 01:24:27;;;;;;;;;37.00;32.75;;;;;10.81;64.08;102413.56;5095985;27;45375;-68
2022/04/30 01:26:53;;;;;;;;;37.00;33.50;;;;;10.81;64.01;102428.00;5101892;27;45459;-68
2022/04/30 01:29:21;;;;;;;;;37.00;32.25;;;;;10.82;64.32;102420.72;5103640;27;45271;-67
2022/04/30 01:37:25;;;;;;;;;39.75;35.25;;;;;10.86;64.25;102425.84;5102752;27;45226;-67
2022/04/30 01:39:55;;;;;;;;;43.75;37.50;;;;;10.94;63.80;102419.88;5096038;27;45454;-67
2022/04/30 01:42:20;;;;;;;;;43.50;35.25;;;;;10.96;63.86;102408.88;5100439;27;46954;-67
2022/04/30 01:44:46;;;;;;;;;31.50;29.00;;;;;10.97;63.75;102413.31;5100790;27;45381;-67
2022/04/30 01:47:14;;;;;;;;;38.00;33.50;;;;;10.85;64.20;102407.78;5087134;27;45182;-67
2022/04/30 01:49:39;;;;;;;;;39.00;31.75;;;;;10.82;63.93;102410.72;5093704;27;45545;-68
2022/04/30 01:52:09;;;;;;;;;51.00;38.25;;;;;10.85;64.53;102410.53;5085825;27;45404;-69
2022/04/30 01:54:35;;;;;;;;;41.00;36.25;;;;;10.82;64.21;102399.84;5095994;27;45458;-67
2022/04/30 01:57:00;;;;;;;;;43.50;36.25;;;;;10.88;64.70;102402.13;5114109;27;45354;-67
2022/04/30 01:59:26;;;;;;;;;44.25;34.00;;;;;10.70;64.85;102403.44;5098920;27;45512;-67
2022/04/30 02:01:51;;;;;;;;;33.75;26.75;;;;;10.72;64.91;102396.06;5087076;27;46290;-67
2022/04/30 02:04:17;;;;;;;;;39.50;30.25;;;;;10.78;65.07;102390.19;5096305;27;45838;-68
2022/04/30 02:06:44;;;;;;;;;35.00;29.50;;;;;10.86;64.35;102393.22;5097771;27;45377;-67
2022/04/30 02:09:10;;;;;;;;;39.25;33.75;;;;;10.87;64.49;102405.84;5090912;27;45578;-67
2022/04/30 02:11:35;;;;;;;;;36.75;30.25;;;;;10.86;64.17;102382.34;5097293;27;45431;-67
2022/04/30 02:14:03;;;;;;;;;37.75;34.00;;;;;10.78;64.49;102390.19;5094852;27;45337;-67
2022/04/30 02:16:30;;;;;;;;;36.25;30.50;;;;;10.64;65.07;102390.31;5089467;27;45365;-67
2022/04/30 02:18:58;;;;;;;;;31.75;29.00;;;;;10.80;64.58;102379.22;5096557;27;45389;-67
2022/04/30 02:21:25;;;;;;;;;41.75;34.50;;;;;10.80;64.62;102382.78;5094504;27;46445;-67
2022/04/30 02:23:56;;;;;;;;;32.25;31.50;;;;;10.72;64.93;102389.75;5093999;27;45337;-67
2022/04/30 02:26:22;;;;;;;;;31.75;27.25;;;;;10.60;65.40;102391.47;5090869;27;45258;-67
2022/04/30 02:28:47;;;;;;;;;40.00;34.25;;;;;10.49;65.21;102386.81;5101900;27;45381;-67
2022/04/30 02:31:23;;;;;;;;;36.75;29.75;;;;;10.45;65.74;102387.13;5090515;27;46242;-68
2022/04/30 02:33:49;;;;;;;;;33.25;28.25;;;;;10.58;65.69;102382.59;5091732;27;45264;-67
2022/04/30 02:36:15;;;;;;;;;39.75;33.50;;;;;10.59;65.55;102387.06;5089488;27;45515;-67
2022/04/30 02:38:41;;;;;;;;;35.25;32.00;;;;;10.67;64.69;102378.31;5086241;27;45645;-67
2022/04/30 02:41:07;;;;;;;;;36.50;33.75;;;;;10.71;64.98;102388.88;5095416;27;45997;-67
2022/04/30 02:43:32;;;;;;;;;38.75;33.00;;;;;10.70;65.18;102383.56;5103640;27;45540;-67
2022/04/30 02:45:58;;;;;;;;;33.00;31.25;;;;;10.56;65.62;102389.97;5087785;27;45413;-67
2022/04/30 02:48:23;;;;;;;;;39.25;33.50;;;;;10.65;64.96;102381.16;5090131;27;45417;-67
2022/04/30 02:50:49;;;;;;;;;36.25;31.50;;;;;10.55;65.88;102390.94;5087621;27;46140;-67
2022/04/30 02:53:14;;;;;;;;;38.75;29.25;;;;;10.54;65.67;102384.63;5087906;27;45299;-67
2022/04/30 02:55:40;;;;;;;;;34.50;31.00;;;;;10.46;65.60;102384.31;5094144;27;45420;-67
2022/04/30 03:00:51;;;;;;;;;38.00;30.50;;;;;10.61;65.24;102376.91;5092518;27;45353;-67
2022/04/30 03:03:18;;;;;;;;;27.75;25.25;;;;;10.68;64.92;102378.22;5086355;27;45176;-67
2022/04/30 03:05:46;;;;;;;;;33.75;29.50;;;;;10.50;64.85;102352.38;5097540;27;45209;-67
2022/04/30 03:08:19;;;;;;;;;37.00;28.50;;;;;10.45;65.30;102368.97;5089381;27;45633;-67
2022/04/30 03:10:46;;;;;;;;;39.50;35.00;;;;;10.47;65.42;102375.19;5096202;27;48161;-68
2022/04/30 03:13:17;;;;;;;;;41.75;32.50;;;;;10.56;65.77;102383.66;5089470;27;45384;-67
2022/04/30 03:15:44;;;;;;;;;44.75;34.75;;;;;10.56;65.74;102384.53;5095585;27;45400;-67
2022/04/30 03:23:39;;;;;;;;;31.00;25.00;;;;;10.51;65.77;102382.16;5091013;27;45383;-67
2022/04/30 03:26:07;;;;;;;;;40.50;34.00;;;;;10.28;66.33;102361.16;5102242;27;45416;-67
2022/04/30 03:28:32;;;;;;;;;38.00;32.50;;;;;10.33;66.79;102371.69;5092825;27;45376;-67
2022/04/30 03:30:58;;;;;;;;;37.00;33.50;;;;;10.30;66.67;102380.06;5108323;27;47179;-68
2022/04/30 03:33:24;;;;;;;;;39.25;34.75;;;;;10.32;66.75;102368.09;5089091;27;45505;-67
2022/04/30 03:35:49;;;;;;;;;39.50;34.75;;;;;10.40;66.39;102367.56;5091881;27;45332;-67
2022/04/30 03:38:15;;;;;;;;;39.00;33.00;;;;;10.36;66.49;102371.50;5091762;27;45304;-67
2022/04/30 03:40:40;;;;;;;;;35.25;27.25;;;;;10.35;66.07;102369.75;5091606;27;46078;-67
2022/04/30 03:43:07;;;;;;;;;37.50;32.25;;;;;10.40;65.92;102370.28;5086587;27;45337;-67
2022/04/30 03:45:32;;;;;;;;;42.75;36.00;;;;;10.24;66.71;102365.03;5094094;27;45314;-68
2022/04/30 03:47:58;;;;;;;;;46.00;35.50;;;;;10.15;66.57;102363.81;5103434;27;45541;-67
2022/04/30 03:50:23;;;;;;;;;49.75;34.75;;;;;10.17;66.95;102358.31;5091268;27;46562;-67
2022/04/30 03:52:49;;;;;;;;;34.50;29.50;;;;;10.21;67.16;102367.13;5084168;27;45336;-67
2022/04/30 03:55:14;;;;;;;;;40.00;33.75;;;;;10.21;66.94;102356.25;5090990;27;45371;-67
2022/04/30 03:57:40;;;;;;;;;41.25;35.00;;;;;10.20;66.93;102362.66;5083305;27;45503;-67
2022/04/30 04:00:07;;;;;;;;;42.75;35.00;;;;;10.25;67.02;102369.50;5090929;27;47187;-67
2022/04/30 04:02:33;;;;;;;;;41.00;36.75;;;;;10.12;67.23;102369.47;5092694;27;45385;-67
2022/04/30 04:04:59;;;;;;;;;44.75;34.50;;;;;10.13;67.30;102364.91;5097423;27;45408;-67
2022/04/30 04:07:24;;;;;;;;;42.00;35.25;;;;;10.05;67.74;102368.16;5093409;27;45283;-67
2022/04/30 04:09:49;;;;;;;;;33.50;31.50;;;;;10.14;67.67;102372.97;5096307;27;46315;-67
2022/04/30 04:12:15;;;;;;;;;39.25;32.50;;;;;10.24;67.13;102373.19;5093005;27;45399;-67
2022/04/30 04:17:39;;;;;;;;;41.50;35.75;;;;;10.27;67.20;102366.69;5084637;27;45293;-67
2022/04/30 04:20:07;;;;;;;;;39.75;34.75;;;;;10.32;66.96;102369.94;5096690;27;48566;-67
2022/04/30 04:22:32;;;;;;;;;45.00;34.75;;;;;10.35;67.04;102369.75;5087288;27;45498;-68
2022/04/30 04:27:41;;;;;;;;;42.00;32.75;;;;;10.43;66.90;102379.09;5087863;27;45426;-67
2022/04/30 04:30:07;;;;;;;;;46.25;33.25;;;;;10.23;67.13;102371.44;5094273;27;45415;-67
2022/04/30 04:32:32;;;;;;;;;41.25;37.00;;;;;10.30;67.21;102378.19;5085039;27;45326;-67
2022/04/30 04:34:57;;;;;;;;;46.75;36.00;;;;;10.30;66.52;102366.50;5092428;27;45372;-67
2022/04/30 04:37:23;;;;;;;;;31.00;27.00;;;;;10.35;66.91;102369.75;5085815;27;45268;-67
2022/04/30 04:39:49;;;;;;;;;39.50;32.00;;;;;10.40;66.97;102378.44;5092363;27;46821;-67
2022/04/30 04:42:14;;;;;;;;;50.25;38.00;;;;;10.37;67.13;102384.09;5088930;27;45329;-67
2022/04/30 04:44:40;;;;;;;;;45.50;37.50;;;;;10.37;67.22;102379.53;5094118;27;45310;-67
2022/04/30 04:47:05;;;;;;;;;43.00;36.00;;;;;10.48;66.77;102386.91;5087976;27;45388;-67
2022/04/30 04:49:32;;;;;;;;;45.25;35.50;;;;;10.51;66.88;102382.16;5095309;27;45489;-67
2022/04/30 04:51:57;;;;;;;;;38.75;33.75;;;;;10.59;67.23;102389.78;5092481;27;45447;-67
2022/04/30 04:54:23;;;;;;;;;43.75;37.25;;;;;10.45;66.92;102376.25;5100956;27;45413;-67
2022/04/30 04:56:48;;;;;;;;;33.75;30.00;;;;;10.40;67.57;102392.91;5086500;27;45515;-67
2022/04/30 04:59:13;;;;;;;;;45.00;38.25;;;;;10.52;66.98;102399.31;5096418;27;47049;-67
2022/04/30 05:01:40;;;;;;;;;47.75;36.75;;;;;10.48;67.16;102397.78;5100771;27;45546;-67
2022/04/30 05:04:08;;;;;;;;;41.75;32.75;;;;;10.50;66.76;102398.56;5092287;27;45341;-67
2022/04/30 05:06:34;;;;;;;;;51.00;38.50;;;;;10.34;67.62;102406.91;5085743;27;45568;-67
2022/04/30 05:08:59;;;;;;;;;50.50;38.75;;;;;10.34;67.50;102401.47;5094977;27;45351;-67
2022/04/30 05:11:25;;;;;;;;;44.50;38.00;;;;;10.30;67.56;102404.53;5099393;27;45187;-67
2022/04/30 05:13:50;;;;;;;;;39.25;34.00;;;;;10.33;67.98;102398.84;5094733;27;45394;-67
2022/04/30 05:16:15;;;;;;;;;51.75;39.75;;;;;10.37;67.68;102405.84;5098798;27;45592;-67
2022/04/30 05:18:41;;;;;;;;;39.75;36.00;;;;;10.40;67.45;102405.59;5095781;27;45368;-67
2022/04/30 05:21:06;;;;;;;;;46.75;38.50;;;;;10.33;67.68;102407.88;5097370;27;45201;-67
2022/04/30 05:23:32;;;;;;;;;41.25;35.25;;;;;10.39;67.73;102415.59;5092570;27;45372;-67
2022/04/30 05:25:58;;;;;;;;;43.50;35.00;;;;;10.50;67.55;102418.47;5096492;27;45301;-68
2022/04/30 05:28:23;;;;;;;;;41.00;35.25;;;;;10.72;67.26;102412.38;5093076;27;45325;-67
2022/04/30 05:30:49;;;;;;;;;42.50;36.00;;;;;11.02;66.07;102411.16;5112292;27;46007;-67
2022/04/30 05:33:14;;;;;;;;;45.00;38.50;;;;;11.69;63.49;102407.91;5098764;27;45549;-67
2022/04/30 05:35:40;;;;;;;;;42.75;36.50;;;;;11.54;63.34;102408.22;5100654;27;45561;-67
2022/04/30 05:38:05;;;;;;;;;40.00;33.50;;;;;11.11;64.30;102429.50;5104906;27;45497;-67
2022/04/30 05:40:30;;;;;;;;;40.25;33.00;;;;;10.99;65.31;102431.28;5093913;27;45340;-67
2022/04/30 05:42:56;;;;;;;;;43.25;34.50;;;;;11.00;65.01;102421.28;5086666;27;45345;-67
2022/04/30 05:45:21;;;;;;;;;45.00;36.50;;;;;10.98;65.05;102434.09;5092035;27;45403;-67
2022/04/30 05:47:47;;;;;;;;;46.00;37.25;;;;;11.02;64.79;102422.03;5085332;27;46715;-67
2022/04/30 05:50:12;;;;;;;;;34.50;33.25;;;;;10.92;64.78;102429.97;5100103;27;45448;-67
2022/04/30 05:52:38;;;;;;;;;42.75;36.75;;;;;10.83;64.96;102438.78;5105582;27;45288;-67
2022/04/30 05:55:07;;;;;;;;;46.75;35.00;;;;;10.60;65.53;102437.69;5091154;27;45247;-67
2022/04/30 05:57:33;;;;;;;;;41.25;35.25;;;;;10.74;65.72;102443.03;5084744;27;45397;-67
2022/04/30 05:59:59;;;;;;;;;48.50;38.50;;;;;10.66;65.21;102434.56;5099330;27;45429;-67
2022/04/30 06:02:24;;;;;;;;;40.75;35.00;;;;;10.73;65.66;102435.88;5100400;27;45673;-67
2022/04/30 06:04:50;;;;;;;;;42.25;37.00;;;;;10.60;65.40;102445.84;5096359;27;45283;-67
2022/04/30 06:07:16;;;;;;;;;38.25;33.25;;;;;10.41;65.89;102439.97;5095702;27;45472;-67
2022/04/30 06:09:42;;;;;;;;;51.25;38.75;;;;;10.53;65.67;102444.53;5097942;27;45538;-68
2022/04/30 06:12:08;;;;;;;;;45.25;37.25;;;;;10.52;65.71;102453.66;5085077;27;45376;-67
2022/04/30 06:14:33;;;;;;;;;43.00;36.75;;;;;10.39;66.06;102452.78;5097601;27;45522;-68
2022/04/30 06:17:00;;;;;;;;;43.00;36.00;;;;;10.45;65.85;102446.91;5093660;27;45986;-67
2022/04/30 06:19:25;;;;;;;;;38.00;31.75;;;;;10.46;66.13;102456.81;5098588;27;45207;-68
2022/04/30 06:21:51;;;;;;;;;41.75;35.00;;;;;10.60;65.55;102451.28;5092268;27;45551;-67
2022/04/30 06:24:17;;;;;;;;;41.50;33.50;;;;;10.76;65.11;102460.09;5098014;27;46296;-68
2022/04/30 06:26:44;;;;;;;;;43.50;34.25;;;;;10.72;64.84;102457.72;5088281;27;45320;-67
2022/04/30 06:29:10;;;;;;;;;36.25;30.75;;;;;10.89;64.51;102463.69;5095662;27;45428;-68
2022/04/30 06:31:36;;;;;;;;;48.75;35.75;;;;;11.01;63.95;102461.97;5089748;27;45387;-67
2022/04/30 06:34:02;;;;;;;;;39.25;34.50;;;;;10.98;63.61;102454.00;5096152;27;45568;-67
2022/04/30 06:36:28;;;;;;;;;43.00;35.75;;;;;11.21;63.39;102460.53;5088252;27;46157;-67
2022/04/30 06:38:53;;;;;;;;;43.25;34.00;;;;;11.41;62.29;102459.94;5092336;27;45391;-67
2022/04/30 06:41:21;;;;;;;;;37.75;33.00;;;;;11.42;61.86;102458.97;5087923;27;45393;-67
2022/04/30 06:43:46;;;;;;;;;50.75;38.50;;;;;11.20;62.01;102456.94;5092399;27;45591;-68
2022/04/30 06:46:11;;;;;;;;;48.00;37.00;;;;;11.23;62.10;102464.88;5101763;27;46922;-68
2022/04/30 06:48:37;;;;;;;;;40.00;34.00;;;;;11.46;61.59;102463.22;5091316;27;45357;-68
2022/04/30 06:51:02;;;;;;;;;27.00;27.00;;;;;11.73;60.50;102453.97;5086274;27;45500;-68
2022/04/30 06:58:59;;;;;;;;;33.25;33.00;;;;;11.76;59.51;102453.78;5091853;27;45376;-67
2022/04/30 07:04:17;;;;;;;;;37.50;34.50;;;;;11.58;59.45;102472.31;5087758;27;45406;-67
2022/04/30 07:06:43;;;;;;;;;35.75;31.50;;;;;11.30;60.36;102478.91;5096748;27;45561;-68
2022/04/30 07:09:08;;;;;;;;;45.00;34.75;;;;;11.44;60.44;102476.06;5094935;27;45388;-67
2022/04/30 07:11:35;;;;;;;;;32.50;28.25;;;;;11.70;59.91;102483.16;5087986;27;45633;-67
2022/04/30 07:14:00;;;;;;;;;44.50;35.00;;;;;11.89;59.31;102473.66;5087192;27;45615;-68
2022/04/30 07:16:26;;;;;;;;;34.25;28.75;;;;;11.88;59.24;102472.81;5094749;27;46182;-67
2022/04/30 07:18:51;;;;;;;;;42.00;32.75;;;;;12.30;58.26;102486.88;5095207;27;45381;-68
2022/04/30 07:21:17;;;;;;;;;40.50;31.00;;;;;12.27;57.28;102493.41;5091893;27;45379;-67
2022/04/30 07:23:42;;;;;;;;;38.75;33.00;;;;;12.23;57.62;102491.94;5092959;27;45436;-67
2022/04/30 07:26:08;;;;;;;;;39.25;33.25;;;;;12.14;57.36;102492.63;5092778;27;45596;-67
2022/04/30 07:28:35;;;;;;;;;35.50;28.50;;;;;12.12;58.15;102491.00;5092455;27;45506;-67
2022/04/30 07:31:04;;;;;;;;;34.75;32.00;;;;;12.07;57.83;102488.63;5090528;27;45336;-67
2022/04/30 07:33:31;;;;;;;;;35.25;29.75;;;;;12.38;57.56;102490.75;5088668;27;45256;-67
2022/04/30 07:35:57;;;;;;;;;37.00;32.50;;;;;12.36;57.51;102492.72;5090540;27;46681;-68
2022/04/30 07:38:23;;;;;;;;;35.00;34.75;;;;;12.11;57.92;102492.88;5089992;27;45455;-67
2022/04/30 07:40:48;;;;;;;;;32.50;27.00;;;;;12.22;57.84;102498.34;5088700;27;45392;-68
2022/04/30 07:43:14;;;;;;;;;37.50;32.50;;;;;12.35;57.62;102490.97;5092270;27;45342;-68
2022/04/30 07:45:39;;;;;;;;;38.25;33.25;;;;;12.30;57.52;102495.91;5105790;27;46878;-68
2022/04/30 07:48:05;;;;;;;;;38.50;33.75;;;;;12.29;57.33;102496.91;5085533;27;45234;-67
2022/04/30 07:50:35;;;;;;;;;33.75;29.75;;;;;12.66;56.94;102499.50;5087266;27;45348;-68
2022/04/30 07:53:05;;;;;;;;;34.25;28.75;;;;;13.02;55.82;102491.16;5093877;27;45324;-68
2022/04/30 07:55:30;;;;;;;;;32.75;29.50;;;;;12.94;54.78;102490.91;5088798;27;46173;-67
2022/04/30 07:57:57;;;;;;;;;34.75;27.00;;;;;13.09;54.90;102491.53;5084102;27;45220;-68
2022/04/30 08:00:23;;;;;;;;;19.25;18.00;;;;;12.88;55.19;102483.22;5095280;27;45439;-68
2022/04/30 08:02:48;;;;;;;;;35.50;32.00;;;;;13.14;54.56;102495.69;5083535;27;45340;-68
2022/04/30 08:05:13;;;;;;;;;30.50;27.50;;;;;13.46;53.92;102487.63;5093485;27;48101;-67
2022/04/30 08:07:38;;;;;;;;;34.00;30.75;;;;;13.59;52.79;102484.75;5098426;27;45253;-68
2022/04/30 08:10:05;;;;;;;;;37.75;31.25;;;;;13.48;53.03;102473.84;5096595;27;45302;-68
2022/04/30 08:12:30;;;;;;;;;32.00;29.50;;;;;13.61;52.51;102483.66;5102264;27;45256;-68
2022/04/30 08:14:55;;;;;;;;;28.00;25.25;;;;;13.48;53.27;102491.09;5102264;27;47262;-68
2022/04/30 08:17:21;;;;;;;;;36.25;31.00;;;;;13.65;52.31;102478.81;5106578;27;45310;-68
2022/04/30 08:19:47;;;;;;;;;30.25;28.00;;;;;13.86;51.90;102482.50;5099467;27;45340;-68
2022/04/30 08:22:13;;;;;;;;;37.75;32.75;;;;;14.03;50.66;102479.19;5093286;27;45954;-68
2022/04/30 08:24:38;;;;;;;;;26.00;24.25;;;;;14.04;51.32;102475.47;5098924;27;45225;-69
2022/04/30 08:27:04;;;;;;;;;27.50;27.25;;;;;14.21;50.41;102487.72;5093111;27;45385;-69
2022/04/30 08:29:30;;;;;;;;;30.00;30.00;;;;;14.01;50.67;102481.22;5096629;27;45393;-69
2022/04/30 08:31:55;;;;;;;;;29.50;23.00;;;;;14.31;50.23;102498.75;5099435;27;45527;-69
2022/04/30 08:34:21;;;;;;;;;25.75;24.75;;;;;14.71;50.25;102480.69;5096044;27;45542;-69
2022/04/30 08:36:46;;;;;;;;;28.75;27.00;;;;;14.60;48.95;102477.16;5089047;27;45370;-69
2022/04/30 08:39:12;;;;;;;;;30.25;26.75;;;;;14.94;48.67;102486.03;5100364;27;45301;-69
2022/04/30 08:41:41;;;;;;;;;22.75;21.50;;;;;15.27;48.74;102491.25;5089720;27;45502;-69
2022/04/30 08:44:07;;;;;;;;;27.00;23.00;;;;;15.39;48.37;102490.16;5102663;27;46997;-69
2022/04/30 08:46:32;;;;;;;;;26.50;23.25;;;;;15.60;47.22;102487.38;5093549;27;45617;-69
2022/04/30 08:48:59;;;;;;;;;29.00;22.00;;;;;15.84;47.69;102474.19;5094313;27;47199;-68
2022/04/30 08:51:25;;;;;;;;;30.00;28.75;;;;;15.82;46.57;102481.69;5086988;27;45244;-68
2022/04/30 08:53:51;;;;;;;;;25.00;23.00;;;;;16.00;45.75;102468.16;5093845;27;45234;-68
2022/04/30 08:56:16;;;;;;;;;23.25;22.50;;;;;15.70;46.52;102474.59;5093879;27;45242;-68
2022/04/30 08:58:41;;;;;;;;;29.00;28.00;;;;;15.76;46.36;102462.19;5091511;27;46045;-68
2022/04/30 09:01:09;;;;;;;;;29.25;25.00;;;;;15.91;47.23;102464.41;5095675;27;45166;-70
2022/04/30 09:03:36;;;;;;;;;26.25;24.00;;;;;15.94;46.31;102458.63;5089780;27;47188;-68
2022/04/30 09:06:04;;;;;;;;;28.00;24.75;;;;;16.08;46.29;102461.94;5101364;27;45863;-68
2022/04/30 09:08:29;;;;;;;;;23.75;22.25;;;;;16.48;44.91;102456.34;5092175;27;45308;-68
2022/04/30 09:11:06;;;;;;;;;24.25;20.25;;;;;16.49;43.81;102464.44;5095730;27;45338;-68
2022/04/30 09:13:32;;;;;;;;;24.50;22.75;;;;;16.63;42.64;102455.78;5103613;27;48502;-68
2022/04/30 09:15:58;;;;;;;;;19.50;18.50;;;;;16.89;42.80;102464.25;5100514;27;45252;-68
2022/04/30 09:18:23;;;;;;;;;19.50;18.25;;;;;16.55;42.57;102452.00;5089690;27;45416;-68
2022/04/30 09:20:51;;;;;;;;;24.67;20.00;;;;;16.68;42.30;102460.84;5099632;27;45241;-68
2022/04/30 09:23:43;;;;;;;;;24.75;22.50;;;;;17.06;41.39;102459.88;5088986;27;46399;-68
2022/04/30 09:26:08;;;;;;;;;28.75;21.75;;;;;17.32;40.84;102449.06;5090618;27;45357;-68
2022/04/30 09:28:38;;;;;;;;;21.25;17.25;;;;;16.85;41.18;102440.00;5093465;27;45433;-68
2022/04/30 09:31:12;;;;;;;;;22.25;18.50;;;;;16.80;41.55;102445.94;5108193;27;45328;-68
2022/04/30 09:33:53;;;;;;;;;16.00;16.00;;;;;17.35;42.11;102444.16;5091919;27;46059;-68
2022/04/30 09:39:12;;;;;;;;;15.00;14.67;;;;;18.76;37.00;102442.59;5102794;27;45435;-68
2022/04/30 09:41:38;;;;;;;;;16.00;15.67;;;;;19.21;36.52;102441.53;5088466;27;45471;-68
2022/04/30 09:44:05;;;;;;;;;20.00;17.33;;;;;18.64;36.16;102438.34;5092635;27;46214;-68
2022/04/30 09:46:35;;;;;;;;;16.67;15.33;;;;;18.90;36.90;102443.91;5085272;27;45335;-68
2022/04/30 09:54:50;;;;;;;;;16.67;15.00;;;;;20.41;33.65;102429.16;5018544;28;45843;-69
2022/04/30 09:57:18;;;;;;;;;17.33;14.33;;;;;20.40;34.17;102430.19;5061628;27;45534;-69
2022/04/30 09:59:53;;;;;;;;;14.33;14.00;;;;;20.53;33.03;102432.44;5102716;27;45322;-69
2022/04/30 10:02:19;;;;;;;;;22.33;18.33;;;;;19.38;33.88;102443.31;5084960;28;45451;-69
2022/04/30 10:04:45;;;;;;;;;14.33;13.00;;;;;19.24;34.52;102433.78;5092274;27;45389;-69
2022/04/30 10:07:11;;;;;;;;;17.33;14.33;;;;;19.33;34.79;102435.56;5093789;27;45614;-69
2022/04/30 10:09:42;;;;;;;;;14.00;13.00;;;;;19.44;34.10;102438.00;5099210;27;45499;-69
2022/04/30 10:12:31;;;;;;;;;16.67;14.67;;;;;19.81;34.27;102412.81;5086134;27;45276;-69
2022/04/30 10:15:37;;;;;;;;;12.00;12.00;;;;;20.75;32.94;102431.72;5097140;27;45926;-69
2022/04/30 10:18:07;;;;;;;;;14.67;13.33;;;;;20.55;31.10;102419.31;5084888;27;45408;-69
2022/04/30 10:20:34;;;;;;;;;10.33;10.33;;;;;20.52;32.15;102419.69;5098692;27;45314;-69
2022/04/30 10:23:01;;;;;;;;;14.67;14.00;;;;;20.32;32.04;102423.78;5087870;27;45521;-69
2022/04/30 10:25:36;;;;;;;;;13.33;12.33;;;;;20.81;32.22;102417.25;5090292;27;47449;-69
2022/04/30 10:28:05;;;;;;;;;15.67;14.00;;;;;20.79;31.27;102413.78;5103856;27;45416;-69
2022/04/30 10:30:31;;;;;;;;;15.00;14.33;;;;;20.48;31.68;102412.78;5097931;27;45258;-69
2022/04/30 10:33:01;;;;;;;;;16.33;14.00;;;;;20.95;31.45;102407.38;5089543;27;45262;-69
2022/04/30 10:35:31;;;;;;;;;14.67;12.33;;;;;21.03;32.09;102407.34;5092400;27;45584;-69
2022/04/30 10:38:12;;;;;;;;;15.00;15.00;;;;;20.62;31.15;102411.19;5084292;27;45192;-69
2022/04/30 10:40:39;;;;;;;;;13.33;13.33;;;;;20.74;31.05;102402.41;5090759;27;45366;-69
2022/04/30 10:43:15;;;;;;;;;17.33;17.00;;;;;20.12;32.88;102396.50;5086301;27;45716;-69
2022/04/30 10:45:41;;;;;;;;;16.00;15.00;;;;;20.02;32.53;102398.56;5089362;27;46191;-69
2022/04/30 10:48:06;;;;;;;;;14.67;12.67;;;;;20.77;32.19;102388.22;5085928;27;45487;-69
2022/04/30 10:50:32;;;;;;;;;16.33;15.67;;;;;20.06;32.57;102399.09;5088791;27;45488;-69
2022/04/30 10:53:00;;;;;;;;;19.00;17.67;;;;;19.76;32.79;102400.59;5094822;27;45430;-69
2022/04/30 10:55:26;;;;;;;;;24.00;22.50;;;;;20.01;33.31;102396.84;5110808;27;47522;-69
2022/04/30 10:57:52;;;;;;;;;14.00;12.67;;;;;20.78;32.55;102398.25;5098937;27;45696;-69
2022/04/30 11:00:18;;;;;;;;;12.67;11.67;;;;;20.81;30.47;102373.03;5097000;27;45388;-69
2022/04/30 11:02:43;;;;;;;;;10.00;7.00;;;;;20.93;30.57;102388.19;5100572;27;45374;-69
2022/04/30 11:05:22;;;;;;;;;10.33;9.33;;;;;21.57;30.84;102374.31;5094991;27;46248;-69
2022/04/30 11:07:48;;;;;;;;;15.67;14.00;;;;;20.82;30.26;102373.91;5095988;27;45271;-69
2022/04/30 11:10:14;;;;;;;;;12.00;11.33;;;;;20.41;31.21;102362.91;5097148;27;45172;-69
2022/04/30 11:12:40;;;;;;;;;10.67;7.00;;;;;20.50;31.41;102380.34;5101461;27;45359;-69
2022/04/30 11:15:06;;;;;;;;;9.67;8.67;;;;;21.17;29.33;102373.47;5096833;27;45995;-69
2022/04/30 11:17:49;;;;;;;;;10.67;8.67;;;;;21.56;28.43;102373.44;5100017;27;45341;-69
2022/04/30 11:20:22;;;;;;;;;9.00;7.67;;;;;21.55;29.43;102365.38;5096747;27;45456;-69
2022/04/30 11:22:58;;;;;;;;;6.67;6.67;;;;;21.52;28.50;102365.72;5099269;27;45544;-70
2022/04/30 11:25:33;;;;;;;;;10.00;7.00;;;;;21.27;28.67;102364.94;5096847;27;45242;-70
2022/04/30 11:27:58;;;;;;;;;6.00;6.00;;;;;20.94;29.43;102361.44;5098247;27;45191;-70
2022/04/30 11:30:24;;;;;;;;;12.67;10.33;;;;;21.20;29.12;102358.41;5094528;27;45271;-69
2022/04/30 11:32:50;;;;;;;;;9.00;6.00;;;;;21.28;28.85;102358.38;5096219;27;45256;-68
2022/04/30 11:35:19;;;;;;;;;8.00;5.33;;;;;21.07;28.58;102356.19;5097806;27;45652;-69
2022/04/30 11:37:44;;;;;;;;;6.00;6.00;;;;;21.18;27.59;102349.47;5096439;27;45405;-69
2022/04/30 11:40:10;;;;;;;;;3.00;3.00;;;;;20.86;28.35;102342.97;5098162;27;45370;-69
2022/04/30 11:42:35;;;;;;;;;7.00;7.00;;;;;20.58;28.70;102348.06;5094604;27;45599;-69
2022/04/30 11:45:01;;;;;;;;;6.33;6.33;;;;;21.21;28.32;102346.31;5092435;27;46897;-69